Date,TemperatureHighF,TemperatureAvgF,TemperatureLowF,DewpointHighF,DewpointAvgF,DewpointLowF,HumidityHigh,HumidityAvg,HumidityLow,PressureMaxIn,PressureMinIn,WindSpeedMaxMPH,WindSpeedAvgMPH,GustSpeedMaxMPH,PrecipitationSumIn
2013-2-1,69,54,43,46,42,38,82,65,41,30.16,30.04,6,0,6,0.00
2013-2-2,60,51,46,48,45,41,90,80,64,30.23,30.15,8,0,8,0.00
2013-2-3,58,50,45,46,42,39,87,74,53,30.20,30.08,12,1,12,0.00
2013-2-4,59,48,40,48,42,37,92,83,61,30.14,30.01,8,0,8,0.00
2013-2-5,54,49,45,45,43,40,89,79,65,30.11,30.02,13,1,13,0.00
2013-2-6,59,48,40,44,39,35,89,72,42,30.14,30.06,12,1,12,0.01
2013-2-7,52,45,39,43,37,32,86,74,52,30.14,29.96,7,0,7,0.09
2013-2-8,51,43,38,41,36,33,92,78,54,29.95,29.88,11,1,11,0.04
2013-2-9,58,46,37,35,28,20,80,54,24,30.05,29.93,11,1,12,0.00
2013-2-10,60,47,37,35,30,26,70,54,30,30.06,29.96,13,1,13,0.00
2013-2-11,62,49,39,36,29,21,76,50,21,30.17,30.00,13,1,14,0.00
2013-2-12,63,49,38,38,32,28,72,55,28,30.30,30.17,11,1,11,0.00
2013-2-13,65,51,40,40,36,32,79,60,31,30.28,30.16,12,1,12,0.00
2013-2-14,69,54,41,44,37,35,85,57,29,30.20,30.11,12,1,12,0.00
2013-2-15,75,59,48,42,38,34,65,46,26,30.22,30.15,8,1,8,0.00
2013-2-16,71,57,48,44,40,33,75,54,32,30.18,30.00,8,0,8,0.00
2013-2-17,65,51,42,47,41,36,90,71,36,30.03,29.92,10,1,11,0.00
2013-2-18,51,46,41,44,39,35,89,78,61,30.02,29.94,7,0,7,0.00
2013-2-19,50,43,40,41,36,32,86,77,66,29.95,29.73,17,1,19,0.26
2013-2-20,57,45,36,37,33,24,85,64,29,30.03,29.79,17,2,18,0.00
2013-2-21,58,47,37,39,33,26,88,62,31,30.14,30.02,13,1,17,0.00
2013-2-22,63,49,37,41,34,28,81,58,27,30.22,30.13,13,1,13,0.00
2013-2-23,58,50,45,43,37,30,86,64,35,30.22,30.11,17,2,17,0.00
2013-2-24,62,52,43,35,24,17,62,36,19,30.21,30.12,16,2,17,0.00
2013-2-25,62,50,39,40,33,24,78,54,34,30.25,30.13,12,1,14,0.00
2013-2-26,66,52,40,38,29,19,84,47,17,30.17,30.08,16,1,16,0.00
2013-2-27,71,55,42,41,32,21,70,45,16,30.34,30.16,11,1,11,0.00
2013-2-28,69,55,45,49,45,39,88,70,45,30.42,30.32,14,1,14,0.00